^^
Datos históricos de la estación: Murcia-Puente Tocinos
Diario Informe para Noviembre 13, 2019 Unidades:  Ambas    Ingés   Métrico
Diario Semanal Mensual Anual
  Máxima: Mínima: Promedio:
Temperatura: 73.9 °F /  23.3 °C 53.4 °F /  11.9 °C 63.1 °F /  17.3 °C
Punto de rocio: 49.1 °F /  9.5 °C 35.4 °F /  1.9 °C 44.6 °F /  7 °C
Humedad: 70% 39% 52%
Velocidad viento: 19mph /  30.6km/h - 5.6mph /  9km/h
Racha viento: 35mph /  56.3km/h - -
Viento- - SO
Presión: 29.9 in /  1010.9 hPa 29.7 in /  1005.5 hPa -
Precipitación: 0 in /  0.0 mm    
 
 
Tabla de datos para Noviembre 13, 2019
Hora Temperatura Punto de rocio Presión Viento Velocidad viento Racha viento Humedad Intensidad lluvia(por hora) Nubes
00:04 56.7 °F /  13.7 °C 35.4 °F /  1.9 °C 29.8in /  1009.9hPa SO 3.1mph /  5km/h 5.2mph /  8.4km/h 45% 0in /  0.0mm
00:09 56.7 °F /  13.7 °C 35.4 °F /  1.9 °C 29.8in /  1009.9hPa SSO 2.9mph /  4.7km/h 5.2mph /  8.4km/h 45% 0in /  0.0mm
00:14 56.7 °F /  13.7 °C 35.8 °F /  2.1 °C 29.8in /  1009.6hPa Oeste 2.9mph /  4.6km/h 5.2mph /  8.4km/h 45.6% 0in /  0.0mm
00:19 56.5 °F /  13.6 °C 36 °F /  2.2 °C 29.8in /  1009.6hPa OSO 2.9mph /  4.7km/h 5mph /  8km/h 46% 0in /  0.0mm
00:24 56.5 °F /  13.6 °C 36 °F /  2.2 °C 29.8in /  1009.6hPa SO 2.5mph /  4.1km/h 5.4mph /  8.7km/h 46% 0in /  0.0mm
00:29 56.3 °F /  13.5 °C 35.8 °F /  2.1 °C 29.8in /  1009.5hPa SO 2.4mph /  3.9km/h 5mph /  8km/h 46% 0in /  0.0mm
00:34 56.3 °F /  13.5 °C 35.8 °F /  2.1 °C 29.8in /  1009.5hPa SSO 2.2mph /  3.5km/h 5mph /  8km/h 46% 0in /  0.0mm
00:39 56.1 °F /  13.4 °C 35.6 °F /  2 °C 29.8in /  1009.5hPa SSE 2mph /  3.2km/h 3.5mph /  5.6km/h 46% 0in /  0.0mm
00:44 56.1 °F /  13.4 °C 36 °F /  2.2 °C 29.8in /  1009.3hPa SE 2mph /  3.2km/h 4.6mph /  7.4km/h 46.9% 0in /  0.0mm
00:49 56.1 °F /  13.4 °C 36.1 °F /  2.3 °C 29.8in /  1009.3hPa SSE 2mph /  3.2km/h 5.8mph /  9.3km/h 47.1% 0in /  0.0mm
00:54 55.9 °F /  13.3 °C 36.5 °F /  2.5 °C 29.8in /  1009.3hPa SSE 2.7mph /  4.3km/h 6mph /  9.7km/h 48% 0in /  0.0mm
00:59 55.8 °F /  13.2 °C 37 °F /  2.8 °C 29.8in /  1009.2hPa SE 3.1mph /  5km/h 7.4mph /  11.9km/h 49.2% 0in /  0.0mm
01:04 55.2 °F /  12.9 °C 37.4 °F /  3 °C 29.8in /  1009.2hPa SE 3.7mph /  5.9km/h 7mph /  11.3km/h 50.8% 0in /  0.0mm
01:09 54.9 °F /  12.7 °C 37.6 °F /  3.1 °C 29.8in /  1009.2hPa SSE 4mph /  6.5km/h 7mph /  11.3km/h 52.2% 0in /  0.0mm
01:14 54.3 °F /  12.4 °C 37.6 °F /  3.1 °C 29.8in /  1009.0hPa SSE 4mph /  6.5km/h 7.4mph /  11.9km/h 53% 0in /  0.0mm
01:19 54.1 °F /  12.3 °C 37.8 °F /  3.2 °C 29.8in /  1009.0hPa Sur 4mph /  6.5km/h 7mph /  11.3km/h 53.9% 0in /  0.0mm
01:24 54.1 °F /  12.3 °C 37.8 °F /  3.2 °C 29.8in /  1009.0hPa SSE 4mph /  6.5km/h 6.9mph /  11.1km/h 54% 0in /  0.0mm
01:29 54 °F /  12.2 °C 37.8 °F /  3.2 °C 29.8in /  1009.0hPa Sur 4mph /  6.5km/h 7mph /  11.3km/h 54% 0in /  0.0mm
01:34 54.1 °F /  12.3 °C 37.8 °F /  3.2 °C 29.8in /  1009.0hPa SSE 3.4mph /  5.4km/h 5mph /  8km/h 54% 0in /  0.0mm
01:39 54.1 °F /  12.3 °C 37.8 °F /  3.2 °C 29.8in /  1009.0hPa SSE 2.9mph /  4.7km/h 4.6mph /  7.4km/h 54% 0in /  0.0mm
01:44 54.3 °F /  12.4 °C 37.6 °F /  3.1 °C 29.8in /  1008.8hPa SE 2.6mph /  4.2km/h 5mph /  8km/h 53.3% 0in /  0.0mm
01:49 54.5 °F /  12.5 °C 37.8 °F /  3.2 °C 29.8in /  1008.8hPa SE 2.4mph /  3.9km/h 6.9mph /  11.1km/h 53% 0in /  0.0mm
01:54 54.7 °F /  12.6 °C 37.9 °F /  3.3 °C 29.8in /  1008.8hPa SE 3.4mph /  5.5km/h 7mph /  11.3km/h 53.1% 0in /  0.0mm
01:59 54.7 °F /  12.6 °C 37.9 °F /  3.3 °C 29.8in /  1008.7hPa SSE 4mph /  6.5km/h 7mph /  11.3km/h 53% 0in /  0.0mm
02:04 54.9 °F /  12.7 °C 37.9 °F /  3.3 °C 29.8in /  1008.7hPa Sur 3.4mph /  5.5km/h 6mph /  9.7km/h 53% 0in /  0.0mm
02:09 54.9 °F /  12.7 °C 37.9 °F /  3.3 °C 29.8in /  1008.7hPa Sur 3.1mph /  5km/h 5mph /  8km/h 53% 0in /  0.0mm
02:14 54.9 °F /  12.7 °C 38.1 °F /  3.4 °C 29.8in /  1008.6hPa SSE 2.7mph /  4.3km/h 5.9mph /  9.5km/h 53% 0in /  0.0mm
02:19 55 °F /  12.8 °C 38.3 °F /  3.5 °C 29.8in /  1008.6hPa SE 2.4mph /  3.9km/h 6mph /  9.7km/h 53% 0in /  0.0mm
02:24 55.2 °F /  12.9 °C 38.3 °F /  3.5 °C 29.8in /  1008.6hPa SSE 3.2mph /  5.1km/h 6.2mph /  10km/h 52.7% 0in /  0.0mm
02:29 55.2 °F /  12.9 °C 38.5 °F /  3.6 °C 29.8in /  1008.2hPa SSE 3.6mph /  5.8km/h 6mph /  9.7km/h 53% 0in /  0.0mm
02:34 55.2 °F /  12.9 °C 38.3 °F /  3.5 °C 29.8in /  1008.2hPa Sur 3.6mph /  5.8km/h 6mph /  9.7km/h 52.7% 0in /  0.0mm
02:39 55.4 °F /  13 °C 37.9 °F /  3.3 °C 29.8in /  1008.2hPa SSE 3.6mph /  5.8km/h 6.2mph /  10km/h 52% 0in /  0.0mm
02:44 55.6 °F /  13.1 °C 37.9 °F /  3.3 °C 29.8in /  1008.1hPa Sur 4mph /  6.5km/h 7.4mph /  11.9km/h 51.5% 0in /  0.0mm
02:49 55.6 °F /  13.1 °C 38.3 °F /  3.5 °C 29.8in /  1008.1hPa SSE 4.3mph /  6.9km/h 8.1mph /  13km/h 52% 0in /  0.0mm
02:54 55.8 °F /  13.2 °C 38.3 °F /  3.5 °C 29.8in /  1008.1hPa SSE 4.8mph /  7.8km/h 8.1mph /  13km/h 52% 0in /  0.0mm
02:59 55.8 °F /  13.2 °C 38.1 °F /  3.4 °C 29.8in /  1007.7hPa SSE 5.2mph /  8.4km/h 8mph /  12.9km/h 51.5% 0in /  0.0mm
03:04 55.8 °F /  13.2 °C 38.1 °F /  3.4 °C 29.8in /  1007.7hPa SSE 4.4mph /  7.1km/h 6mph /  9.7km/h 51.5% 0in /  0.0mm
03:09 55.9 °F /  13.3 °C 38.3 °F /  3.5 °C 29.8in /  1007.7hPa SSE 4mph /  6.5km/h 5mph /  8km/h 51.6% 0in /  0.0mm
03:14 55.9 °F /  13.3 °C 38.7 °F /  3.7 °C 29.8in /  1007.4hPa SSE 2.6mph /  4.2km/h 3mph /  4.8km/h 52% 0in /  0.0mm
03:19 55.9 °F /  13.3 °C 39 °F /  3.9 °C 29.8in /  1007.4hPa SSE 1.8mph /  2.9km/h 4.6mph /  7.4km/h 52.9% 0in /  0.0mm
03:24 55.9 °F /  13.3 °C 38.8 °F /  3.8 °C 29.8in /  1007.4hPa SE 1.8mph /  2.9km/h 5mph /  8km/h 52.8% 0in /  0.0mm
03:29 55.8 °F /  13.2 °C 38.8 °F /  3.8 °C 29.7in /  1007.3hPa SE 1.8mph /  2.9km/h 2.4mph /  3.9km/h 53% 0in /  0.0mm
03:34 55.8 °F /  13.2 °C 38.7 °F /  3.7 °C 29.7in /  1007.3hPa SE 1.6mph /  2.5km/h 2.4mph /  3.9km/h 52.5% 0in /  0.0mm
03:39 55.8 °F /  13.2 °C 38.8 °F /  3.8 °C 29.7in /  1007.3hPa SE 1.4mph /  2.2km/h 2.4mph /  3.9km/h 53% 0in /  0.0mm
03:44 55.8 °F /  13.2 °C 38.7 °F /  3.7 °C 29.7in /  1007.2hPa SE 1.4mph /  2.2km/h 2.3mph /  3.7km/h 52.5% 0in /  0.0mm
03:49 55.9 °F /  13.3 °C 39 °F /  3.9 °C 29.7in /  1007.2hPa SE 1.4mph /  2.2km/h 2.3mph /  3.7km/h 52.9% 0in /  0.0mm
03:54 55.9 °F /  13.3 °C 39 °F /  3.9 °C 29.7in /  1007.2hPa SSE 0.5mph /  0.8km/h 2.3mph /  3.7km/h 53.1% 0in /  0.0mm
03:59 55.9 °F /  13.3 °C 39.6 °F /  4.2 °C 29.7in /  1006.9hPa Calm   2.4mph /  3.9km/h 54% 0in /  0.0mm
04:04 55.8 °F /  13.2 °C 39.4 °F /  4.1 °C 29.7in /  1006.9hPa Oeste 0.9mph /  1.5km/h 2.4mph /  3.9km/h 54% 0in /  0.0mm
04:09 55.6 °F /  13.1 °C 39.6 °F /  4.2 °C 29.7in /  1007.0hPa NO 1.4mph /  2.2km/h 3.5mph /  5.6km/h 54.7% 0in /  0.0mm
04:14 55.4 °F /  13 °C 39.6 °F /  4.2 °C 29.7in /  1007.0hPa NO 0.5mph /  0.8km/h 3mph /  4.8km/h 55.4% 0in /  0.0mm
04:19 55.2 °F /  12.9 °C 39.4 °F /  4.1 °C 29.7in /  1007.0hPa Calm   2.9mph /  4.7km/h 55.2% 0in /  0.0mm
04:24 55 °F /  12.8 °C 39.6 °F /  4.2 °C 29.7in /  1007.0hPa NO 0.9mph /  1.4km/h 3mph /  4.8km/h 55.9% 0in /  0.0mm
04:29 55 °F /  12.8 °C 39.6 °F /  4.2 °C 29.7in /  1006.8hPa NO 1.4mph /  2.2km/h 3mph /  4.8km/h 56% 0in /  0.0mm
04:34 55 °F /  12.8 °C 39.7 °F /  4.3 °C 29.7in /  1006.8hPa NO 0.5mph /  0.8km/h   56.3% 0in /  0.0mm
04:39 55 °F /  12.8 °C 39.6 °F /  4.2 °C 29.7in /  1006.8hPa Calm   4.6mph /  7.4km/h 56% 0in /  0.0mm
04:44 54.9 °F /  12.7 °C 39.7 °F /  4.3 °C 29.7in /  1006.5hPa NO 1.2mph /  2km/h 5mph /  8km/h 56.6% 0in /  0.0mm
04:49 54.7 °F /  12.6 °C 39.7 °F /  4.3 °C 29.7in /  1006.5hPa NO 2mph /  3.2km/h 3mph /  4.8km/h 57% 0in /  0.0mm
04:54 54.9 °F /  12.7 °C 39.7 °F /  4.3 °C 29.7in /  1006.7hPa North 1.6mph /  2.6km/h 3.6mph /  5.8km/h 57% 0in /  0.0mm
04:59 55 °F /  12.8 °C 40.1 °F /  4.5 °C 29.7in /  1006.7hPa SE 1.4mph /  2.2km/h 4mph /  6.4km/h 57% 0in /  0.0mm
05:04 55 °F /  12.8 °C 40.3 °F /  4.6 °C 29.7in /  1006.7hPa SSO 1.4mph /  2.2km/h 4.6mph /  7.4km/h 57.4% 0in /  0.0mm
05:09 55 °F /  12.8 °C 40.1 °F /  4.5 °C 29.7in /  1006.7hPa ONO 1.4mph /  2.2km/h 5mph /  8km/h 57.2% 0in /  0.0mm
05:14 54.9 °F /  12.7 °C 40.1 °F /  4.5 °C 29.7in /  1006.5hPa ONO 2.1mph /  3.3km/h 5mph /  8km/h 57.3% 0in /  0.0mm
05:19 54.7 °F /  12.6 °C 40.3 °F /  4.6 °C 29.7in /  1006.5hPa NO 2.4mph /  3.9km/h 5.9mph /  9.5km/h 58% 0in /  0.0mm
05:24 54.5 °F /  12.5 °C 40.3 °F /  4.6 °C 29.7in /  1006.5hPa ONO 2.7mph /  4.4km/h 6mph /  9.7km/h 58.6% 0in /  0.0mm
05:29 54.1 °F /  12.3 °C 40.3 °F /  4.6 °C 29.7in /  1006.4hPa ONO 2.9mph /  4.7km/h 6.9mph /  11.1km/h 59.3% 0in /  0.0mm
05:34 54.1 °F /  12.3 °C 40.6 °F /  4.8 °C 29.7in /  1006.4hPa ONO 3.4mph /  5.4km/h 7mph /  11.3km/h 60% 0in /  0.0mm
05:39 54.1 °F /  12.3 °C 40.6 °F /  4.8 °C 29.7in /  1006.4hPa OSO 3.6mph /  5.8km/h 5mph /  8km/h 60.1% 0in /  0.0mm
05:44 54.1 °F /  12.3 °C 41 °F /  5 °C 29.7in /  1006.4hPa Oeste 3.2mph /  5.1km/h 5mph /  8km/h 60.8% 0in /  0.0mm
05:49 54.1 °F /  12.3 °C 41.4 °F /  5.2 °C 29.7in /  1006.4hPa Oeste 2.9mph /  4.7km/h 5mph /  8km/h 62% 0in /  0.0mm
05:54 54.3 °F /  12.4 °C 41.5 °F /  5.3 °C 29.7in /  1006.4hPa Sur 1.9mph /  3.1km/h 3.5mph /  5.6km/h 62% 0in /  0.0mm
05:59 54.5 °F /  12.5 °C 42.1 °F /  5.6 °C 29.7in /  1006.2hPa SSE 1.4mph /  2.2km/h 4.7mph /  7.6km/h 62.8% 0in /  0.0mm
06:04 54.7 °F /  12.6 °C 42.4 °F /  5.8 °C 29.7in /  1006.2hPa SSE 2.4mph /  3.8km/h 5.2mph /  8.4km/h 63.4% 0in /  0.0mm
06:09 54.7 °F /  12.6 °C 42.1 °F /  5.6 °C 29.7in /  1006.3hPa Sur 2.9mph /  4.7km/h 5mph /  8km/h 62.6% 0in /  0.0mm
06:14 54.5 °F /  12.5 °C 42.4 °F /  5.8 °C 29.7in /  1006.3hPa SSE 3mph /  4.9km/h 6.9mph /  11.1km/h 63.6% 0in /  0.0mm
06:19 54.3 °F /  12.4 °C 43 °F /  6.1 °C 29.7in /  1006.3hPa ESE 3.1mph /  5km/h 7mph /  11.3km/h 65.4% 0in /  0.0mm
06:24 54.1 °F /  12.3 °C 43 °F /  6.1 °C 29.7in /  1006.3hPa ESE 3.4mph /  5.5km/h 6mph /  9.7km/h 66.1% 0in /  0.0mm
06:29 54 °F /  12.2 °C 43.3 °F /  6.3 °C 29.7in /  1006.0hPa SE 3.6mph /  5.8km/h 6.4mph /  10.3km/h 67.1% 0in /  0.0mm
06:34 53.8 °F /  12.1 °C 43.5 °F /  6.4 °C 29.7in /  1006.0hPa SSE 3.6mph /  5.8km/h 7mph /  11.3km/h 67.9% 0in /  0.0mm
06:39 53.4 °F /  11.9 °C 43.2 °F /  6.2 °C 29.7in /  1006.0hPa Sur 3.6mph /  5.8km/h 7mph /  11.3km/h 67.9% 0in /  0.0mm
06:44 53.4 °F /  11.9 °C 42.8 °F /  6 °C 29.7in /  1005.8hPa Sur 3.9mph /  6.2km/h 6mph /  9.7km/h 67.1% 0in /  0.0mm
06:49 53.6 °F /  12 °C 42.8 °F /  6 °C 29.7in /  1005.8hPa SSO 4mph /  6.5km/h 6mph /  9.7km/h 67% 0in /  0.0mm
06:54 53.8 °F /  12.1 °C 43.2 °F /  6.2 °C 29.7in /  1005.8hPa SSO 3.7mph /  6km/h 5mph /  8km/h 67% 0in /  0.0mm
06:59 54 °F /  12.2 °C 43.3 °F /  6.3 °C 29.7in /  1005.7hPa Sur 3.6mph /  5.8km/h 5mph /  8km/h 67.4% 0in /  0.0mm
07:04 54 °F /  12.2 °C 43.3 °F /  6.3 °C 29.7in /  1005.7hPa Sur 2.5mph /  4.1km/h 5.4mph /  8.7km/h 67.1% 0in /  0.0mm
07:09 54 °F /  12.2 °C 43.2 °F /  6.2 °C 29.7in /  1005.7hPa Sur 2mph /  3.2km/h 6mph /  9.7km/h 67% 0in /  0.0mm
07:14 54 °F /  12.2 °C 43 °F /  6.1 °C 29.7in /  1005.5hPa SSO 3mph /  4.8km/h 6mph /  9.7km/h 66.4% 0in /  0.0mm
07:19 54 °F /  12.2 °C 42.8 °F /  6 °C 29.7in /  1005.5hPa Sur 3.6mph /  5.8km/h 6mph /  9.7km/h 65.6% 0in /  0.0mm
07:24 54 °F /  12.2 °C 42.8 °F /  6 °C 29.7in /  1005.6hPa SSO 3.3mph /  5.3km/h 6mph /  9.7km/h 65.8% 0in /  0.0mm
07:29 54 °F /  12.2 °C 42.6 °F /  5.9 °C 29.7in /  1005.6hPa OSO 3.1mph /  5km/h 5mph /  8km/h 65.2% 0in /  0.0mm
07:34 54 °F /  12.2 °C 42.4 °F /  5.8 °C 29.7in /  1005.6hPa OSO 2.4mph /  3.9km/h 4mph /  6.4km/h 65% 0in /  0.0mm
07:39 54 °F /  12.2 °C 42.6 °F /  5.9 °C 29.7in /  1005.7hPa Oeste 2mph /  3.2km/h 5.8mph /  9.3km/h 65.3% 0in /  0.0mm
07:44 53.8 °F /  12.1 °C 42.8 °F /  6 °C 29.7in /  1005.7hPa Oeste 2.2mph /  3.6km/h 6mph /  9.7km/h 66.1% 0in /  0.0mm
07:49 53.8 °F /  12.1 °C 43 °F /  6.1 °C 29.7in /  1005.7hPa OSO 2.4mph /  3.9km/h 5mph /  8km/h 66.8% 0in /  0.0mm
07:54 53.4 °F /  11.9 °C 42.6 °F /  5.9 °C 29.7in /  1005.7hPa SSE 2mph /  3.2km/h 4mph /  6.4km/h 66.8% 0in /  0.0mm
07:59 53.4 °F /  11.9 °C 42.6 °F /  5.9 °C 29.7in /  1005.6hPa Este 1.8mph /  2.9km/h 3mph /  4.8km/h 66.7% 0in /  0.0mm
08:04 53.4 °F /  11.9 °C 43.2 °F /  6.2 °C 29.7in /  1005.6hPa NE 1.6mph /  2.5km/h 3mph /  4.8km/h 68% 0in /  0.0mm
08:09 53.4 °F /  11.9 °C 43.5 °F /  6.4 °C 29.7in /  1005.8hPa NE 1.4mph /  2.2km/h 2.4mph /  3.9km/h 69.1% 0in /  0.0mm
08:14 53.8 °F /  12.1 °C 44.1 °F /  6.7 °C 29.7in /  1005.8hPa NE 0.5mph /  0.8km/h 2.9mph /  4.7km/h 70% 0in /  0.0mm
08:19 54 °F /  12.2 °C 44.2 °F /  6.8 °C 29.7in /  1005.8hPa Calm   3mph /  4.8km/h 69.5% 0in /  0.0mm
08:24 54.1 °F /  12.3 °C 44.2 °F /  6.8 °C 29.7in /  1005.9hPa NE 0.9mph /  1.4km/h 3.5mph /  5.6km/h 69% 0in /  0.0mm
08:29 54.3 °F /  12.4 °C 44.1 °F /  6.7 °C 29.7in /  1005.9hPa SE 1.4mph /  2.2km/h 4.6mph /  7.4km/h 67.8% 0in /  0.0mm
08:34 54.5 °F /  12.5 °C 44.1 °F /  6.7 °C 29.7in /  1005.9hPa Sur 1.8mph /  2.9km/h 5mph /  8km/h 67.8% 0in /  0.0mm
08:39 54.7 °F /  12.6 °C 44.4 °F /  6.9 °C 29.7in /  1005.9hPa Sur 2mph /  3.2km/h 4mph /  6.4km/h 68.1% 0in /  0.0mm
08:44 54.9 °F /  12.7 °C 43.9 °F /  6.6 °C 29.7in /  1005.7hPa SSE 1.9mph /  3km/h 5mph /  8km/h 66.3% 0in /  0.0mm
08:49 55 °F /  12.8 °C 43.9 °F /  6.6 °C 29.7in /  1005.7hPa SSE 1.8mph /  2.9km/h 5mph /  8km/h 65.9% 0in /  0.0mm
08:54 55.2 °F /  12.9 °C 44.1 °F /  6.7 °C 29.7in /  1005.9hPa SSE 1.9mph /  3.1km/h 4.7mph /  7.6km/h 66% 0in /  0.0mm
08:59 55.4 °F /  13 °C 43.9 °F /  6.6 °C 29.7in /  1005.9hPa Sur 2mph /  3.2km/h 5.8mph /  9.3km/h 65.2% 0in /  0.0mm
09:04 55.6 °F /  13.1 °C 44.1 °F /  6.7 °C 29.7in /  1005.9hPa SSO 3mph /  4.9km/h 6.2mph /  10km/h 65% 0in /  0.0mm
09:09 55.8 °F /  13.2 °C 43.9 °F /  6.6 °C 29.7in /  1005.9hPa SO 3.6mph /  5.8km/h 6.2mph /  10km/h 64% 0in /  0.0mm
09:14 56.1 °F /  13.4 °C 43.3 °F /  6.3 °C 29.7in /  1005.9hPa SO 3.6mph /  5.8km/h 6mph /  9.7km/h 61.9% 0in /  0.0mm
09:19 56.7 °F /  13.7 °C 43 °F /  6.1 °C 29.7in /  1005.9hPa OSO 3.6mph /  5.8km/h 6mph /  9.7km/h 60.2% 0in /  0.0mm
09:24 57 °F /  13.9 °C 42.8 °F /  6 °C 29.7in /  1006.2hPa Oeste 3.2mph /  5.1km/h 5.2mph /  8.4km/h 59% 0in /  0.0mm
09:29 57.6 °F /  14.2 °C 42.8 °F /  6 °C 29.7in /  1006.2hPa OSO 2.9mph /  4.7km/h 5.2mph /  8.4km/h 58.1% 0in /  0.0mm
09:34 57.7 °F /  14.3 °C 42.6 °F /  5.9 °C 29.7in /  1006.2hPa SO 3mph /  4.9km/h 5mph /  8km/h 57.1% 0in /  0.0mm
09:39 57.9 °F /  14.4 °C 42.8 °F /  6 °C 29.7in /  1006.5hPa SO 3.1mph /  5km/h 5mph /  8km/h 56.8% 0in /  0.0mm
09:44 58.3 °F /  14.6 °C 42.6 °F /  5.9 °C 29.7in /  1006.5hPa SSO 2.7mph /  4.3km/h 5mph /  8km/h 55.8% 0in /  0.0mm
09:49 58.6 °F /  14.8 °C 42.6 °F /  5.9 °C 29.7in /  1006.5hPa Sur 2.4mph /  3.9km/h 5mph /  8km/h 55.3% 0in /  0.0mm
09:54 59.4 °F /  15.2 °C 42.8 °F /  6 °C 29.7in /  1006.5hPa SSE 2.4mph /  3.9km/h 5mph /  8km/h 54.4% 0in /  0.0mm
09:59 59.9 °F /  15.5 °C 43 °F /  6.1 °C 29.7in /  1006.5hPa Sur 2.4mph /  3.9km/h 4.7mph /  7.6km/h 53.5% 0in /  0.0mm
10:04 60.4 °F /  15.8 °C 43.2 °F /  6.2 °C 29.7in /  1006.5hPa SSE 2.4mph /  3.9km/h 5mph /  8km/h 52.9% 0in /  0.0mm
10:09 60.8 °F /  16 °C 43 °F /  6.1 °C 29.7in /  1006.5hPa Sur 2.4mph /  3.9km/h 5mph /  8km/h 51.8% 0in /  0.0mm
10:14 61.3 °F /  16.3 °C 43.2 °F /  6.2 °C 29.7in /  1006.5hPa SSO 2.2mph /  3.5km/h 5mph /  8km/h 51% 0in /  0.0mm
10:19 61.9 °F /  16.6 °C 43.2 °F /  6.2 °C 29.7in /  1006.5hPa Sur 2mph /  3.2km/h 5.2mph /  8.4km/h 50.2% 0in /  0.0mm
10:24 62.2 °F /  16.8 °C 43.3 °F /  6.3 °C 29.7in /  1006.6hPa SSO 2.5mph /  4.1km/h 5.2mph /  8.4km/h 50% 0in /  0.0mm
10:29 62.4 °F /  16.9 °C 43.2 °F /  6.2 °C 29.7in /  1006.6hPa Sur 2.9mph /  4.7km/h 6.2mph /  10km/h 49.4% 0in /  0.0mm
10:34 62.8 °F /  17.1 °C 43.5 °F /  6.4 °C 29.7in /  1006.6hPa SSO 3.4mph /  5.4km/h 6.4mph /  10.3km/h 49.5% 0in /  0.0mm
10:39 63 °F /  17.2 °C 44.1 °F /  6.7 °C 29.7in /  1006.7hPa SSO 3.6mph /  5.8km/h 7.4mph /  11.9km/h 50.1% 0in /  0.0mm
10:44 63.5 °F /  17.5 °C 45 °F /  7.2 °C 29.7in /  1006.7hPa SO 4mph /  6.5km/h 7mph /  11.3km/h 50.8% 0in /  0.0mm
10:49 64 °F /  17.8 °C 45.5 °F /  7.5 °C 29.7in /  1006.7hPa SO 4.3mph /  6.9km/h 11.8mph /  19km/h 51% 0in /  0.0mm
10:54 64.6 °F /  18.1 °C 46 °F /  7.8 °C 29.7in /  1006.7hPa SO 4.3mph /  6.9km/h 12mph /  19.3km/h 51% 0in /  0.0mm
10:59 65.1 °F /  18.4 °C 46.2 °F /  7.9 °C 29.7in /  1006.5hPa SSO 4.3mph /  6.9km/h 11.8mph /  19km/h 50.5% 0in /  0.0mm
11:04 65.5 °F /  18.6 °C 46.4 °F /  8 °C 29.7in /  1006.5hPa SSO 5.3mph /  8.6km/h 12mph /  19.3km/h 50% 0in /  0.0mm
11:09 65.8 °F /  18.8 °C 46.8 °F /  8.2 °C 29.7in /  1006.5hPa SO 5.9mph /  9.5km/h 10.4mph /  16.7km/h 50.1% 0in /  0.0mm
11:14 66.6 °F /  19.2 °C 47.1 °F /  8.4 °C 29.7in /  1006.5hPa SSO 5.9mph /  9.5km/h 10.4mph /  16.7km/h 49.8% 0in /  0.0mm
11:19 67.1 °F /  19.5 °C 47.3 °F /  8.5 °C 29.7in /  1006.5hPa SO 5.9mph /  9.5km/h 12.7mph /  20.4km/h 49.3% 0in /  0.0mm
11:24 67.3 °F /  19.6 °C 47.5 °F /  8.6 °C 29.7in /  1006.5hPa SO 6.8mph /  11km/h 15mph /  24.1km/h 49% 0in /  0.0mm
11:29 67.6 °F /  19.8 °C 47.7 °F /  8.7 °C 29.7in /  1006.4hPa SO 7.4mph /  11.9km/h 15mph /  24.1km/h 48.7% 0in /  0.0mm
11:34 68.2 °F /  20.1 °C 47.7 °F /  8.7 °C 29.7in /  1006.4hPa SO 7.5mph /  12.1km/h 13mph /  20.9km/h 48% 0in /  0.0mm
11:39 68.5 °F /  20.3 °C 48 °F /  8.9 °C 29.7in /  1006.5hPa SO 7.6mph /  12.2km/h 13mph /  20.9km/h 48% 0in /  0.0mm
11:44 68.7 °F /  20.4 °C 47.8 °F /  8.8 °C 29.7in /  1006.5hPa SO 6.7mph /  10.8km/h 10.7mph /  17.2km/h 47.1% 0in /  0.0mm
11:49 68.7 °F /  20.4 °C 47.7 °F /  8.7 °C 29.7in /  1006.5hPa SO 6.2mph /  10km/h 11.5mph /  18.5km/h 47% 0in /  0.0mm
11:54 69.1 °F /  20.6 °C 48 °F /  8.9 °C 29.7in /  1006.7hPa SO 6.2mph /  10km/h 12mph /  19.3km/h 47.2% 0in /  0.0mm
11:59 69.4 °F /  20.8 °C 48 °F /  8.9 °C 29.7in /  1006.7hPa OSO 6.2mph /  10km/h 9.2mph /  14.8km/h 46.4% 0in /  0.0mm
12:04 70.2 °F /  21.2 °C 48 °F /  8.9 °C 29.7in /  1006.7hPa Oeste 5.2mph /  8.4km/h 10.4mph /  16.7km/h 45.4% 0in /  0.0mm
12:09 70.7 °F /  21.5 °C 48.4 °F /  9.1 °C 29.7in /  1006.7hPa OSO 4.7mph /  7.6km/h 13mph /  20.9km/h 45% 0in /  0.0mm
12:14 71.2 °F /  21.8 °C 48.2 °F /  9 °C 29.7in /  1006.7hPa Oeste 6.1mph /  9.8km/h 17.3mph /  27.8km/h 43.9% 0in /  0.0mm
12:19 71.8 °F /  22.1 °C 48 °F /  8.9 °C 29.7in /  1006.7hPa ONO 6.9mph /  11.1km/h 17.3mph /  27.8km/h 43% 0in /  0.0mm
12:24 72.1 °F /  22.3 °C 48.2 °F /  9 °C 29.7in /  1006.7hPa Oeste 9.6mph /  15.5km/h 20.8mph /  33.5km/h 42.7% 0in /  0.0mm
12:29 72.3 °F /  22.4 °C 47.8 °F /  8.8 °C 29.7in /  1006.7hPa Oeste 11.2mph /  18km/h 21mph /  33.8km/h 42% 0in /  0.0mm
12:34 72.3 °F /  22.4 °C 47.8 °F /  8.8 °C 29.7in /  1006.7hPa Oeste 11.6mph /  18.6km/h 21mph /  33.8km/h 41.9% 0in /  0.0mm
12:39 72.5 °F /  22.5 °C 47.7 °F /  8.7 °C 29.7in /  1006.7hPa OSO 11.8mph /  19km/h 22.3mph /  35.9km/h 41.3% 0in /  0.0mm
12:44 72.7 °F /  22.6 °C 47.7 °F /  8.7 °C 29.7in /  1006.5hPa OSO 11.4mph /  18.4km/h 22mph /  35.4km/h 41% 0in /  0.0mm
12:49 72.9 °F /  22.7 °C 48 °F /  8.9 °C 29.7in /  1006.5hPa OSO 11.2mph /  18km/h 18.5mph /  29.8km/h 41.4% 0in /  0.0mm
12:54 72.9 °F /  22.7 °C 48 °F /  8.9 °C 29.7in /  1006.5hPa ONO 9.6mph /  15.5km/h 19mph /  30.6km/h 41.4% 0in /  0.0mm
12:59 73.2 °F /  22.9 °C 48 °F /  8.9 °C 29.7in /  1006.3hPa ONO 8.7mph /  14km/h 20.7mph /  33.3km/h 40.7% 0in /  0.0mm
13:04 73.6 °F /  23.1 °C 47.7 °F /  8.7 °C 29.7in /  1006.3hPa Oeste 10.8mph /  17.4km/h 25.3mph /  40.7km/h 39.8% 0in /  0.0mm
13:09 73.8 °F /  23.2 °C 47.5 °F /  8.6 °C 29.7in /  1006.3hPa Oeste 11.8mph /  19km/h 25mph /  40.2km/h 39.2% 0in /  0.0mm
13:14 73.9 °F /  23.3 °C 47.5 °F /  8.6 °C 29.7in /  1006.1hPa ONO 14.2mph /  22.8km/h 23mph /  37km/h 39% 0in /  0.0mm
13:19 73.8 °F /  23.2 °C 47.3 °F /  8.5 °C 29.7in /  1006.1hPa ONO 15.6mph /  25.1km/h 27.6mph /  44.4km/h 39% 0in /  0.0mm
13:24 73.8 °F /  23.2 °C 47.3 °F /  8.5 °C 29.7in /  1006.3hPa ONO 14.6mph /  23.5km/h 28mph /  45.1km/h 39% 0in /  0.0mm
13:29 73.8 °F /  23.2 °C 47.3 °F /  8.5 °C 29.7in /  1006.3hPa Oeste 14mph /  22.5km/h 29.9mph /  48.1km/h 39% 0in /  0.0mm
13:34 73.8 °F /  23.2 °C 47.3 °F /  8.5 °C 29.7in /  1006.3hPa ONO 15.2mph /  24.5km/h 30mph /  48.3km/h 39% 0in /  0.0mm
13:39 73.8 °F /  23.2 °C 47.3 °F /  8.5 °C 29.7in /  1006.3hPa Oeste 15.9mph /  25.6km/h 30.6mph /  49.2km/h 39% 0in /  0.0mm
13:44 73.4 °F /  23 °C 46.9 °F /  8.3 °C 29.7in /  1006.3hPa Oeste 17.1mph /  27.6km/h 34.5mph /  55.5km/h 39.1% 0in /  0.0mm
13:49 73 °F /  22.8 °C 47.3 °F /  8.5 °C 29.7in /  1006.3hPa ONO 17.8mph /  28.7km/h 35mph /  56.3km/h 40% 0in /  0.0mm
13:54 73 °F /  22.8 °C 47.1 °F /  8.4 °C 29.7in /  1006.5hPa ONO 18.6mph /  29.9km/h 32.2mph /  51.8km/h 39.7% 0in /  0.0mm
13:59 72.9 °F /  22.7 °C 47.1 °F /  8.4 °C 29.7in /  1006.5hPa ONO 19mph /  30.6km/h 32mph /  51.5km/h 40% 0in /  0.0mm
14:04 72.7 °F /  22.6 °C 46.9 °F /  8.3 °C 29.7in /  1006.5hPa Oeste 18mph /  28.9km/h 29.1mph /  46.8km/h 40% 0in /  0.0mm
14:09 72.9 °F /  22.7 °C 47.1 °F /  8.4 °C 29.7in /  1006.6hPa Oeste 17.5mph /  28.2km/h 29mph /  46.7km/h 40% 0in /  0.0mm
14:14 72.7 °F /  22.6 °C 47.1 °F /  8.4 °C 29.7in /  1006.6hPa Oeste 16.3mph /  26.2km/h 29mph /  46.7km/h 40% 0in /  0.0mm
14:19 72.5 °F /  22.5 °C 46.9 °F /  8.3 °C 29.7in /  1006.6hPa Oeste 15.6mph /  25.1km/h 31.1mph /  50.1km/h 40% 0in /  0.0mm
14:24 72.7 °F /  22.6 °C 46.9 °F /  8.3 °C 29.7in /  1006.6hPa Oeste 15.8mph /  25.4km/h 31mph /  49.9km/h 40% 0in /  0.0mm
14:29 72.7 °F /  22.6 °C 47.1 °F /  8.4 °C 29.7in /  1006.4hPa ONO 15.9mph /  25.6km/h 26.1mph /  42km/h 40.2% 0in /  0.0mm
14:34 72.9 °F /  22.7 °C 47.1 °F /  8.4 °C 29.7in /  1006.4hPa Oeste 15.9mph /  25.6km/h 27.9mph /  44.9km/h 40% 0in /  0.0mm
14:39 72.9 °F /  22.7 °C 47.1 °F /  8.4 °C 29.7in /  1006.4hPa Oeste 15.9mph /  25.6km/h 28mph /  45.1km/h 40% 0in /  0.0mm
14:44 73 °F /  22.8 °C 47.3 °F /  8.5 °C 29.7in /  1006.4hPa Oeste 15.9mph /  25.6km/h 26.5mph /  42.6km/h 40% 0in /  0.0mm
14:49 73 °F /  22.8 °C 47.3 °F /  8.5 °C 29.7in /  1006.4hPa Oeste 15.9mph /  25.6km/h 26mph /  41.8km/h 39.9% 0in /  0.0mm
14:54 73 °F /  22.8 °C 47.3 °F /  8.5 °C 29.7in /  1006.5hPa Oeste 15.2mph /  24.4km/h 27.6mph /  44.4km/h 39.9% 0in /  0.0mm
14:59 73 °F /  22.8 °C 46.6 °F /  8.1 °C 29.7in /  1006.5hPa Oeste 14.7mph /  23.7km/h 28mph /  45.1km/h 39% 0in /  0.0mm
15:04 73 °F /  22.8 °C 46.6 °F /  8.1 °C 29.7in /  1006.5hPa Oeste 15.5mph /  25km/h 31.1mph /  50.1km/h 39.1% 0in /  0.0mm
15:09 73 °F /  22.8 °C 46.6 °F /  8.1 °C 29.7in /  1006.6hPa ONO 15.9mph /  25.6km/h 31mph /  49.9km/h 39% 0in /  0.0mm
15:14 72.9 °F /  22.7 °C 46.6 °F /  8.1 °C 29.7in /  1006.6hPa Oeste 15.2mph /  24.4km/h 28mph /  45.1km/h 39.3% 0in /  0.0mm
15:19 72.9 °F /  22.7 °C 47.1 °F /  8.4 °C 29.7in /  1006.6hPa Oeste 14.7mph /  23.7km/h 25.6mph /  41.2km/h 40% 0in /  0.0mm
15:24 72.7 °F /  22.6 °C 46.9 °F /  8.3 °C 29.7in /  1006.6hPa Oeste 13.3mph /  21.4km/h 26mph /  41.8km/h 40% 0in /  0.0mm
15:29 72.7 °F /  22.6 °C 46.9 °F /  8.3 °C 29.7in /  1006.6hPa Oeste 12.5mph /  20.1km/h 24mph /  38.6km/h 40% 0in /  0.0mm
15:34 72.9 °F /  22.7 °C 46.6 °F /  8.1 °C 29.7in /  1006.6hPa Oeste 12.8mph /  20.6km/h 26.8mph /  43.1km/h 39.2% 0in /  0.0mm
15:39 73.2 °F /  22.9 °C 46.8 °F /  8.2 °C 29.7in /  1006.6hPa Oeste 13mph /  20.9km/h 27mph /  43.5km/h 39% 0in /  0.0mm
15:44 73.2 °F /  22.9 °C 46.8 °F /  8.2 °C 29.7in /  1006.6hPa Oeste 13.4mph /  21.6km/h 25.3mph /  40.7km/h 39.1% 0in /  0.0mm
15:49 73.4 °F /  23 °C 47.5 °F /  8.6 °C 29.7in /  1006.6hPa OSO 13.7mph /  22.1km/h 25mph /  40.2km/h 40% 0in /  0.0mm
15:54 73.6 °F /  23.1 °C 47.1 °F /  8.4 °C 29.7in /  1006.8hPa Oeste 11.2mph /  18km/h 21.9mph /  35.2km/h 39.2% 0in /  0.0mm
15:59 73.4 °F /  23 °C 47.1 °F /  8.4 °C 29.7in /  1006.8hPa Oeste 9.7mph /  15.6km/h 22mph /  35.4km/h 39.4% 0in /  0.0mm
16:04 73.4 °F /  23 °C 47.5 °F /  8.6 °C 29.7in /  1006.8hPa Oeste 10mph /  16.1km/h 19mph /  30.6km/h 39.9% 0in /  0.0mm
16:09 73.2 °F /  22.9 °C 47.5 °F /  8.6 °C 29.7in /  1007.1hPa Oeste 10.2mph /  16.4km/h 20.4mph /  32.8km/h 40% 0in /  0.0mm
16:14 73 °F /  22.8 °C 47.3 °F /  8.5 °C 29.7in /  1007.1hPa Oeste 10.5mph /  16.9km/h 27.6mph /  44.4km/h 40% 0in /  0.0mm
16:19 73 °F /  22.8 °C 47.3 °F /  8.5 °C 29.7in /  1007.1hPa Oeste 10.7mph /  17.2km/h 28mph /  45.1km/h 40% 0in /  0.0mm
16:24 72.9 °F /  22.7 °C 47.1 °F /  8.4 °C 29.8in /  1007.5hPa Oeste 12.2mph /  19.6km/h 26mph /  41.8km/h 40.1% 0in /  0.0mm
16:29 72.9 °F /  22.7 °C 47.7 °F /  8.7 °C 29.8in /  1007.5hPa Oeste 13mph /  20.9km/h 23.5mph /  37.8km/h 40.7% 0in /  0.0mm
16:34 72.9 °F /  22.7 °C 47.5 °F /  8.6 °C 29.8in /  1007.5hPa ONO 10.6mph /  17km/h 23.5mph /  37.8km/h 40.8% 0in /  0.0mm
16:39 72.7 °F /  22.6 °C 47.5 °F /  8.6 °C 29.8in /  1007.7hPa NO 9.2mph /  14.8km/h 23mph /  37km/h 41% 0in /  0.0mm
16:44 72.3 °F /  22.4 °C 47.3 °F /  8.5 °C 29.8in /  1007.7hPa NO 9.2mph /  14.8km/h 21mph /  33.8km/h 41% 0in /  0.0mm
16:49 72.1 °F /  22.3 °C 47.1 °F /  8.4 °C 29.8in /  1007.7hPa NO 9.2mph /  14.8km/h 18mph /  29km/h 41% 0in /  0.0mm
16:54 72 °F /  22.2 °C 46.9 °F /  8.3 °C 29.8in /  1007.7hPa NO 9.5mph /  15.3km/h 17.5mph /  28.2km/h 41% 0in /  0.0mm
16:59 71.8 °F /  22.1 °C 46.8 °F /  8.2 °C 29.8in /  1007.7hPa NO 9.7mph /  15.6km/h 20.7mph /  33.3km/h 41% 0in /  0.0mm
17:04 71.8 °F /  22.1 °C 47.3 °F /  8.5 °C 29.8in /  1007.7hPa ONO 10.7mph /  17.2km/h 21mph /  33.8km/h 42% 0in /  0.0mm
17:09 71.4 °F /  21.9 °C 47.1 °F /  8.4 °C 29.8in /  1007.9hPa NO 11.2mph /  18km/h 20.7mph /  33.3km/h 42% 0in /  0.0mm
17:14 71.2 °F /  21.8 °C 47.5 °F /  8.6 °C 29.8in /  1007.9hPa ONO 11.3mph /  18.2km/h 21mph /  33.8km/h 42.6% 0in /  0.0mm
17:19 71.2 °F /  21.8 °C 47.7 °F /  8.7 °C 29.8in /  1007.9hPa NO 11.4mph /  18.4km/h 18mph /  29km/h 43% 0in /  0.0mm
17:24 71.1 °F /  21.7 °C 47.5 °F /  8.6 °C 29.8in /  1008.3hPa NO 9.7mph /  15.6km/h 20.7mph /  33.3km/h 43% 0in /  0.0mm
17:29 71.1 °F /  21.7 °C 47.8 °F /  8.8 °C 29.8in /  1008.3hPa NO 8.7mph /  14km/h 21mph /  33.8km/h 43.7% 0in /  0.0mm
17:34 71.1 °F /  21.7 °C 48 °F /  8.9 °C 29.8in /  1008.3hPa ONO 9.5mph /  15.3km/h 19mph /  30.6km/h 44% 0in /  0.0mm
17:39 70.9 °F /  21.6 °C 47.8 °F /  8.8 °C 29.8in /  1008.6hPa NO 10mph /  16.1km/h 16.1mph /  25.9km/h 44% 0in /  0.0mm
17:44 70.9 °F /  21.6 °C 47.8 °F /  8.8 °C 29.8in /  1008.6hPa NO 9.2mph /  14.8km/h 16.1mph /  25.9km/h 44.1% 0in /  0.0mm
17:49 70.5 °F /  21.4 °C 48.2 °F /  9 °C 29.8in /  1008.6hPa NO 8.7mph /  14km/h 16.1mph /  25.9km/h 45% 0in /  0.0mm
17:54 70.3 °F /  21.3 °C 48 °F /  8.9 °C 29.8in /  1008.7hPa NO 9.3mph /  15km/h 16mph /  25.7km/h 45% 0in /  0.0mm
17:59 70.2 °F /  21.2 °C 48 °F /  8.9 °C 29.8in /  1008.7hPa ONO 9.7mph /  15.6km/h 15mph /  24.1km/h 45.3% 0in /  0.0mm
18:04 70.2 °F /  21.2 °C 48.4 °F /  9.1 °C 29.8in /  1008.7hPa ONO 9mph /  14.5km/h 16.1mph /  25.9km/h 46% 0in /  0.0mm
18:09 70.2 °F /  21.2 °C 48.2 °F /  9 °C 29.8in /  1009.0hPa ONO 8.7mph /  14km/h 16mph /  25.7km/h 46% 0in /  0.0mm
18:14 69.8 °F /  21 °C 48.4 °F /  9.1 °C 29.8in /  1009.0hPa ONO 8.6mph /  13.8km/h 14mph /  22.5km/h 46.4% 0in /  0.0mm
18:19 69.6 °F /  20.9 °C 48.6 °F /  9.2 °C 29.8in /  1009.0hPa ONO 8.5mph /  13.7km/h 14mph /  22.5km/h 47% 0in /  0.0mm
18:24 69.6 °F /  20.9 °C 48.6 °F /  9.2 °C 29.8in /  1009.4hPa ONO 7.5mph /  12km/h 12mph /  19.3km/h 47% 0in /  0.0mm
18:29 69.4 °F /  20.8 °C 48.6 °F /  9.2 °C 29.8in /  1009.4hPa ONO 6.9mph /  11.1km/h 9mph /  14.5km/h 47.3% 0in /  0.0mm
18:34 69.4 °F /  20.8 °C 48.9 °F /  9.4 °C 29.8in /  1009.4hPa NO 5.8mph /  9.4km/h 10.4mph /  16.7km/h 48% 0in /  0.0mm
18:39 69.3 °F /  20.7 °C 48.7 °F /  9.3 °C 29.8in /  1009.4hPa ONO 5.2mph /  8.4km/h 10.4mph /  16.7km/h 48% 0in /  0.0mm
18:44 69.3 °F /  20.7 °C 48.7 °F /  9.3 °C 29.8in /  1009.4hPa ONO 5.2mph /  8.4km/h 9.2mph /  14.8km/h 48% 0in /  0.0mm
18:49 69.1 °F /  20.6 °C 48.6 °F /  9.2 °C 29.8in /  1009.4hPa ONO 5.2mph /  8.4km/h 9mph /  14.5km/h 48% 0in /  0.0mm
18:54 69.1 °F /  20.6 °C 49.1 °F /  9.5 °C 29.8in /  1009.6hPa ONO 4.6mph /  7.4km/h 8.5mph /  13.7km/h 49% 0in /  0.0mm
18:59 68.7 °F /  20.4 °C 48.9 °F /  9.4 °C 29.8in /  1009.6hPa ONO 4.3mph /  6.9km/h 9mph /  14.5km/h 49% 0in /  0.0mm
19:04 68.7 °F /  20.4 °C 48.7 °F /  9.3 °C 29.8in /  1009.6hPa ONO 4.6mph /  7.4km/h 8mph /  12.9km/h 49% 0in /  0.0mm
19:09 68.5 °F /  20.3 °C 49.1 °F /  9.5 °C 29.8in /  1009.8hPa Oeste 4.7mph /  7.6km/h 7mph /  11.3km/h 49.8% 0in /  0.0mm
19:14 68.5 °F /  20.3 °C 49.1 °F /  9.5 °C 29.8in /  1009.8hPa Oeste 4mph /  6.5km/h 6mph /  9.7km/h 50% 0in /  0.0mm
19:19 68.4 °F /  20.2 °C 48.9 °F /  9.4 °C 29.8in /  1009.8hPa Oeste 3.6mph /  5.8km/h 5mph /  8km/h 50% 0in /  0.0mm
19:24 68.4 °F /  20.2 °C 48.9 °F /  9.4 °C 29.8in /  1010.0hPa Oeste 2.5mph /  4.1km/h 3mph /  4.8km/h 50% 0in /  0.0mm
19:29 68.2 °F /  20.1 °C 48.7 °F /  9.3 °C 29.8in /  1010.0hPa Oeste 2mph /  3.2km/h 2.9mph /  4.7km/h 50% 0in /  0.0mm
19:34 68.2 °F /  20.1 °C 48.7 °F /  9.3 °C 29.8in /  1010.0hPa Oeste 1.6mph /  2.6km/h 4.6mph /  7.4km/h 50% 0in /  0.0mm
19:39 68.4 °F /  20.2 °C 48.9 °F /  9.4 °C 29.8in /  1010.1hPa ONO 1.4mph /  2.2km/h 5mph /  8km/h 50% 0in /  0.0mm
19:44 68.4 °F /  20.2 °C 48.9 °F /  9.4 °C 29.8in /  1010.1hPa ONO 2.5mph /  4km/h 5.9mph /  9.5km/h 50% 0in /  0.0mm
19:49 68.4 °F /  20.2 °C 48.9 °F /  9.4 °C 29.8in /  1010.1hPa ONO 3.1mph /  5km/h 6mph /  9.7km/h 50% 0in /  0.0mm
19:54 68.4 °F /  20.2 °C 48.9 °F /  9.4 °C 29.8in /  1010.3hPa ONO 3.9mph /  6.2km/h 6mph /  9.7km/h 50% 0in /  0.0mm
19:59 68.2 °F /  20.1 °C 48.7 °F /  9.3 °C 29.8in /  1010.3hPa ONO 4.3mph /  6.9km/h 6.2mph /  10km/h 50% 0in /  0.0mm
20:04 68.2 °F /  20.1 °C 49.1 °F /  9.5 °C 29.8in /  1010.3hPa NO 4.1mph /  6.6km/h 6.9mph /  11.1km/h 50.6% 0in /  0.0mm
20:09 67.8 °F /  19.9 °C 49.1 °F /  9.5 °C 29.8in /  1010.4hPa NO 4mph /  6.5km/h 7mph /  11.3km/h 51% 0in /  0.0mm
20:14 67.6 °F /  19.8 °C 48.9 °F /  9.4 °C 29.8in /  1010.4hPa NO 4.2mph /  6.8km/h 7.4mph /  11.9km/h 51% 0in /  0.0mm
20:19 67.5 °F /  19.7 °C 48.7 °F /  9.3 °C 29.8in /  1010.4hPa NO 4.3mph /  6.9km/h 7mph /  11.3km/h 51% 0in /  0.0mm
20:24 67.5 °F /  19.7 °C 48.7 °F /  9.3 °C 29.8in /  1010.4hPa NO 4.3mph /  6.9km/h 7.4mph /  11.9km/h 51% 0in /  0.0mm
20:29 67.5 °F /  19.7 °C 48.7 °F /  9.3 °C 29.8in /  1010.4hPa NNO 4.3mph /  6.9km/h 7.4mph /  11.9km/h 51% 0in /  0.0mm
20:34 67.5 °F /  19.7 °C 48.7 °F /  9.3 °C 29.8in /  1010.4hPa NO 4.5mph /  7.3km/h 7.4mph /  11.9km/h 51% 0in /  0.0mm
20:39 67.5 °F /  19.7 °C 48.2 °F /  9 °C 29.8in /  1010.4hPa NO 4.7mph /  7.6km/h 9.2mph /  14.8km/h 50.1% 0in /  0.0mm
20:44 67.6 °F /  19.8 °C 48.2 °F /  9 °C 29.8in /  1010.4hPa NO 5.2mph /  8.3km/h 10.4mph /  16.7km/h 50% 0in /  0.0mm
20:49 67.6 °F /  19.8 °C 48.4 °F /  9.1 °C 29.8in /  1010.4hPa ONO 5.4mph /  8.7km/h 10.4mph /  16.7km/h 50% 0in /  0.0mm
20:54 67.5 °F /  19.7 °C 48.2 °F /  9 °C 29.8in /  1010.6hPa ONO 5.9mph /  9.5km/h 10mph /  16.1km/h 50% 0in /  0.0mm
20:59 67.5 °F /  19.7 °C 48.4 °F /  9.1 °C 29.8in /  1010.6hPa NO 6.2mph /  10km/h 10.4mph /  16.7km/h 50.6% 0in /  0.0mm
21:04 67.3 °F /  19.6 °C 48.4 °F /  9.1 °C 29.8in /  1010.6hPa ONO 6.2mph /  10km/h 10mph /  16.1km/h 51% 0in /  0.0mm
21:09 66.9 °F /  19.4 °C 48.2 °F /  9 °C 29.8in /  1010.7hPa SO 6.2mph /  10km/h 8mph /  12.9km/h 51% 0in /  0.0mm
21:14 66.9 °F /  19.4 °C 48.2 °F /  9 °C 29.8in /  1010.7hPa Sur 4.5mph /  7.3km/h 6.2mph /  10km/h 51% 0in /  0.0mm
21:19 66.9 °F /  19.4 °C 48.2 °F /  9 °C 29.8in /  1010.7hPa SSO 3.6mph /  5.8km/h 8.5mph /  13.7km/h 51% 0in /  0.0mm
21:24 66.7 °F /  19.3 °C 48 °F /  8.9 °C 29.9in /  1010.9hPa SSO 4mph /  6.5km/h 9.2mph /  14.8km/h 51% 0in /  0.0mm
21:29 66.6 °F /  19.2 °C 47.8 °F /  8.8 °C 29.9in /  1010.9hPa SSO 4.3mph /  6.9km/h 9.2mph /  14.8km/h 51% 0in /  0.0mm
21:34 66.4 °F /  19.1 °C 47.7 °F /  8.7 °C 29.9in /  1010.9hPa SSO 5.3mph /  8.6km/h 9.2mph /  14.8km/h 51% 0in /  0.0mm
21:39 66.2 °F /  19 °C 47.5 °F /  8.6 °C 29.9in /  1010.9hPa SO 5.9mph /  9.5km/h 9mph /  14.5km/h 51% 0in /  0.0mm
21:44 66 °F /  18.9 °C 47.5 °F /  8.6 °C 29.9in /  1010.8hPa SO 5.2mph /  8.3km/h 7mph /  11.3km/h 51% 0in /  0.0mm
21:49 65.8 °F /  18.8 °C 47.3 °F /  8.5 °C 29.9in /  1010.8hPa SO 4.7mph /  7.6km/h 7mph /  11.3km/h 51% 0in /  0.0mm
21:54 65.8 °F /  18.8 °C 47.3 °F /  8.5 °C 29.9in /  1010.8hPa SO 4.2mph /  6.8km/h 6mph /  9.7km/h 51.3% 0in /  0.0mm
21:59 65.8 °F /  18.8 °C 47.7 °F /  8.7 °C 29.9in /  1010.8hPa SO 4mph /  6.5km/h 6.9mph /  11.1km/h 52% 0in /  0.0mm
22:04 65.7 °F /  18.7 °C 47.5 °F /  8.6 °C 29.9in /  1010.8hPa SO 4mph /  6.5km/h 7mph /  11.3km/h 52% 0in /  0.0mm
22:09 65.7 °F /  18.7 °C 47.5 °F /  8.6 °C 29.9in /  1010.8hPa SO 4mph /  6.5km/h 6mph /  9.7km/h 52% 0in /  0.0mm
22:14 65.7 °F /  18.7 °C 47.5 °F /  8.6 °C 29.8in /  1010.7hPa SO 3.3mph /  5.3km/h 5mph /  8km/h 52% 0in /  0.0mm
22:19 65.5 °F /  18.6 °C 47.5 °F /  8.6 °C 29.8in /  1010.7hPa SO 2.9mph /  4.7km/h 4mph /  6.4km/h 52% 0in /  0.0mm
22:24 65.3 °F /  18.5 °C 47.5 °F /  8.6 °C 29.8in /  1010.7hPa OSO 2.2mph /  3.5km/h 4.7mph /  7.6km/h 52.5% 0in /  0.0mm
22:29 64.9 °F /  18.3 °C 47.5 °F /  8.6 °C 29.8in /  1010.6hPa Oeste 1.8mph /  2.9km/h 5.2mph /  8.4km/h 53% 0in /  0.0mm
22:34 64.6 °F /  18.1 °C 47.7 °F /  8.7 °C 29.8in /  1010.6hPa Oeste 2.6mph /  4.2km/h 5.2mph /  8.4km/h 54% 0in /  0.0mm
22:39 64.2 °F /  17.9 °C 47.7 °F /  8.7 °C 29.9in /  1010.9hPa OSO 3.1mph /  5km/h 5mph /  8km/h 54.8% 0in /  0.0mm
22:44 64 °F /  17.8 °C 47.5 °F /  8.6 °C 29.9in /  1010.9hPa SO 2.7mph /  4.3km/h 5mph /  8km/h 55% 0in /  0.0mm
22:49 63.9 °F /  17.7 °C 47.5 °F /  8.6 °C 29.9in /  1010.9hPa Sur 2.4mph /  3.9km/h 4.7mph /  7.6km/h 55.2% 0in /  0.0mm
22:54 63.9 °F /  17.7 °C 47.8 °F /  8.8 °C 29.9in /  1010.9hPa Sur 2.4mph /  3.9km/h 5mph /  8km/h 56% 0in /  0.0mm
22:59 63.7 °F /  17.6 °C 47.7 °F /  8.7 °C 29.9in /  1010.9hPa SO 2.4mph /  3.9km/h 5mph /  8km/h 55.7% 0in /  0.0mm
23:04 63.7 °F /  17.6 °C 47.5 °F /  8.6 °C 29.9in /  1010.9hPa Oeste 2.4mph /  3.9km/h 5mph /  8km/h 55.8% 0in /  0.0mm
23:09 63.5 °F /  17.5 °C 47.5 °F /  8.6 °C 29.9in /  1010.9hPa ONO 2.4mph /  3.9km/h 5mph /  8km/h 56% 0in /  0.0mm
23:14 63.1 °F /  17.3 °C 47.7 °F /  8.7 °C 29.8in /  1010.7hPa North 2mph /  3.2km/h 6.2mph /  10km/h 57% 0in /  0.0mm
23:19 62.4 °F /  16.9 °C 48 °F /  8.9 °C 29.8in /  1010.7hPa ENE 1.8mph /  2.9km/h 6mph /  9.7km/h 59.1% 0in /  0.0mm
23:24 62.1 °F /  16.7 °C 47.8 °F /  8.8 °C 29.8in /  1010.7hPa ESE 3.2mph /  5.1km/h 6mph /  9.7km/h 60.1% 0in /  0.0mm
23:29 61.5 °F /  16.4 °C 48 °F /  8.9 °C 29.8in /  1010.4hPa ESE 4mph /  6.5km/h 6mph /  9.7km/h 61% 0in /  0.0mm
23:34 61.2 °F /  16.2 °C 47.8 °F /  8.8 °C 29.8in /  1010.4hPa ESE 3.4mph /  5.5km/h 6mph /  9.7km/h 61.2% 0in /  0.0mm
23:39 61 °F /  16.1 °C 47.8 °F /  8.8 °C 29.8in /  1010.4hPa Este 3.1mph /  5km/h 5mph /  8km/h 62% 0in /  0.0mm
23:44 60.6 °F /  15.9 °C 47.5 °F /  8.6 °C 29.8in /  1010.3hPa ENE 2mph /  3.2km/h 2.4mph /  3.9km/h 62% 0in /  0.0mm
23:49 60.4 °F /  15.8 °C 47.7 °F /  8.7 °C 29.8in /  1010.3hPa NNE 1.4mph /  2.2km/h 2mph /  3.2km/h 62.6% 0in /  0.0mm
23:54 60.4 °F /  15.8 °C 47.7 °F /  8.7 °C 29.8in /  1010.3hPa NNE 0.5mph /  0.8km/h 3.6mph /  5.8km/h 63% 0in /  0.0mm
23:59 60.3 °F /  15.7 °C 47.8 °F /  8.8 °C 29.8in /  1009.9hPa Calm   4.6mph /  7.4km/h 63.8% 0in /  0.0mm
Murcia-Puente Tocinos, España
Compliments of Weather Underground - 3 mb

La estación de MeteoMurcia.com, publica sus datos en los siguientes proyectos:

Weather Underground PWS IMURCIAP2 Meteoclimatic www.awekas.at

W3Counter
Web Analytics